createdAt,value
2022-09-02T00:00:37.319Z,1013.62
2022-09-02T00:01:37.345Z,1013.62
2022-09-02T00:02:37.521Z,1013.61
2022-09-02T00:03:37.460Z,1013.60
2022-09-02T00:04:37.419Z,1013.58
2022-09-02T00:05:37.446Z,1013.58
2022-09-02T00:06:37.471Z,1013.58
2022-09-02T00:07:37.497Z,1013.58
2022-09-02T00:08:37.520Z,1013.54
2022-09-02T00:09:37.547Z,1013.54
2022-09-02T00:10:37.572Z,1013.56
2022-09-02T00:11:37.598Z,1013.56
2022-09-02T00:12:37.619Z,1013.53
2022-09-02T00:13:37.645Z,1013.51
2022-09-02T00:14:37.670Z,1013.53
2022-09-02T00:15:37.695Z,1013.51
2022-09-02T00:16:37.746Z,1013.53
2022-09-02T00:17:37.745Z,1013.53
2022-09-02T00:18:37.772Z,1013.54
2022-09-02T00:19:37.798Z,1013.54
2022-09-02T00:20:37.820Z,1013.52
2022-09-02T00:21:37.845Z,1013.53
2022-09-02T00:22:37.869Z,1013.49
2022-09-02T00:23:37.894Z,1013.52
2022-09-02T00:24:37.917Z,1013.52
2022-09-02T00:25:37.943Z,1013.52
2022-09-02T00:26:37.969Z,1013.52
2022-09-02T00:27:37.996Z,1013.52
2022-09-02T00:28:38.020Z,1013.52
2022-09-02T00:29:38.047Z,1013.51
2022-09-02T00:30:38.071Z,1013.52
2022-09-02T00:31:38.144Z,1013.49
2022-09-02T00:32:38.119Z,1013.51
2022-09-02T00:33:38.145Z,1013.49
2022-09-02T00:34:38.175Z,1013.49
2022-09-02T00:35:38.194Z,1013.48
2022-09-02T00:36:38.219Z,1013.47
2022-09-02T00:37:38.242Z,1013.45
2022-09-02T00:38:38.268Z,1013.42
2022-09-02T00:39:38.293Z,1013.43
2022-09-02T00:40:38.368Z,1013.40
2022-09-02T00:41:38.347Z,1013.36
2022-09-02T00:42:38.369Z,1013.38
2022-09-02T00:43:38.398Z,1013.38
2022-09-02T00:44:38.419Z,1013.40
2022-09-02T00:45:38.485Z,1013.39
2022-09-02T00:46:38.469Z,1013.40
2022-09-02T00:47:38.494Z,1013.36
2022-09-02T00:48:38.517Z,1013.37
2022-09-02T00:49:38.541Z,1013.37
2022-09-02T00:50:38.565Z,1013.38
2022-09-02T00:51:38.592Z,1013.39
2022-09-02T00:52:38.619Z,1013.35
2022-09-02T00:53:38.688Z,1013.35
2022-09-02T00:54:38.667Z,1013.33
2022-09-02T00:55:38.693Z,1013.33
2022-09-02T00:56:38.716Z,1013.37
2022-09-02T00:57:38.742Z,1013.35
2022-09-02T00:58:38.765Z,1013.31
2022-09-02T00:59:38.791Z,1013.35
2022-09-02T01:00:38.841Z,1013.32
2022-09-02T01:01:38.979Z,1013.34
2022-09-02T01:02:38.929Z,1013.35
2022-09-02T01:03:38.891Z,1013.34
2022-09-02T01:04:38.913Z,1013.31
2022-09-02T01:05:43.680Z,1013.33
2022-09-02T01:06:38.962Z,1013.31
2022-09-02T01:07:38.989Z,1013.32
2022-09-02T01:08:39.014Z,1013.31
2022-09-02T01:09:39.049Z,1013.28
2022-09-02T01:10:39.060Z,1013.33
2022-09-02T01:11:39.094Z,1013.29
2022-09-02T01:12:39.113Z,1013.32
2022-09-02T01:13:39.138Z,1013.34
2022-09-02T01:14:39.161Z,1013.36
2022-09-02T01:15:39.185Z,1013.35
2022-09-02T01:16:39.295Z,1013.37
2022-09-02T01:17:39.232Z,1013.33
2022-09-02T01:18:39.258Z,1013.39
2022-09-02T01:19:39.283Z,1013.30
2022-09-02T01:20:39.309Z,1013.36
2022-09-02T01:21:39.328Z,1013.30
2022-09-02T01:22:39.359Z,1013.35
2022-09-02T01:23:39.381Z,1013.32
2022-09-02T01:24:39.405Z,1013.31
2022-09-02T01:25:39.432Z,1013.33
2022-09-02T01:26:39.458Z,1013.33
2022-09-02T01:27:39.481Z,1013.32
2022-09-02T01:28:39.507Z,1013.34
2022-09-02T01:29:39.532Z,1013.35
2022-09-02T01:30:39.550Z,1013.32
2022-09-02T01:31:39.616Z,1013.32
2022-09-02T01:32:39.605Z,1013.30
2022-09-02T01:33:39.629Z,1013.30
2022-09-02T01:34:39.651Z,1013.29
2022-09-02T01:35:39.679Z,1013.26
2022-09-02T01:36:39.702Z,1013.31
2022-09-02T01:37:39.731Z,1013.30
2022-09-02T01:38:39.753Z,1013.29
2022-09-02T01:39:39.774Z,1013.28
2022-09-02T01:40:39.849Z,1013.29
2022-09-02T01:41:39.826Z,1013.27
2022-09-02T01:42:39.850Z,1013.23
2022-09-02T01:43:39.874Z,1013.26
2022-09-02T01:44:39.894Z,1013.23
2022-09-02T01:45:39.923Z,1013.24
2022-09-02T01:46:40.000Z,1013.25
2022-09-02T01:47:39.970Z,1013.22
2022-09-02T01:48:39.998Z,1013.26
2022-09-02T01:49:47.246Z,1013.23
2022-09-02T01:51:44.510Z,1013.22
2022-09-02T01:52:44.048Z,1013.22
2022-09-02T01:54:48.065Z,1013.19
2022-09-02T01:55:48.082Z,1013.18
2022-09-02T01:57:52.575Z,1013.13
2022-09-02T01:58:52.729Z,1013.12
2022-09-02T02:00:45.206Z,1013.07
2022-09-02T02:01:45.111Z,1013.08
2022-09-02T02:03:49.569Z,1013.06
2022-09-02T02:04:49.106Z,1013.04
2022-09-02T02:06:53.607Z,1013.01
2022-09-02T02:07:53.146Z,1013.03
2022-09-02T02:09:57.164Z,1012.97
2022-09-02T02:10:57.179Z,1012.95
2022-09-02T02:13:01.668Z,1013.00
2022-09-02T02:14:01.212Z,1012.99
2022-09-02T02:16:05.306Z,1013.02
2022-09-02T02:17:05.242Z,1012.96
2022-09-02T02:19:09.735Z,1012.98
2022-09-02T02:20:09.269Z,1012.97
2022-09-02T02:22:13.289Z,1013.00
2022-09-02T02:23:13.409Z,1012.98
2022-09-02T02:25:17.794Z,1012.96
2022-09-02T02:26:17.329Z,1012.94
2022-09-02T02:28:21.339Z,1012.94
2022-09-02T02:29:21.355Z,1012.94
2022-09-02T02:31:14.875Z,1012.96
2022-09-02T02:32:14.316Z,1012.91
2022-09-02T02:34:18.335Z,1012.93
2022-09-02T02:35:18.351Z,1012.93
2022-09-02T02:37:25.499Z,1012.90
2022-09-02T02:38:22.382Z,1012.89
2022-09-02T02:40:15.353Z,1012.88
2022-09-02T02:41:15.334Z,1012.89
2022-09-02T02:43:19.862Z,1012.85
2022-09-02T02:44:19.364Z,1012.88
2022-09-02T02:46:23.908Z,1012.84
2022-09-02T02:47:23.409Z,1012.84
2022-09-02T02:49:27.421Z,1012.81
2022-09-02T02:50:27.434Z,1012.84
2022-09-02T02:52:31.930Z,1012.82
2022-09-02T02:53:31.469Z,1012.85
2022-09-02T02:55:35.484Z,1012.81
2022-09-02T02:56:35.504Z,1012.79
2022-09-02T02:58:39.993Z,1012.77
2022-09-02T02:59:39.537Z,1012.76
2022-09-02T03:01:43.630Z,1012.76
2022-09-02T03:02:43.758Z,1012.79
2022-09-02T03:04:48.051Z,1012.77
2022-09-02T03:05:47.592Z,1012.79
2022-09-02T03:07:51.599Z,1012.81
2022-09-02T03:08:51.621Z,1012.78
2022-09-02T03:10:45.098Z,1012.79
2022-09-02T03:11:44.569Z,1012.78
2022-09-02T03:13:48.584Z,1012.74
2022-09-02T03:14:48.603Z,1012.74
2022-09-02T03:16:53.091Z,1012.75
2022-09-02T03:17:52.625Z,1012.74
2022-09-02T03:19:56.639Z,1012.72
2022-09-02T03:20:56.651Z,1012.73
2022-09-02T03:23:01.147Z,1012.72
2022-09-02T03:24:00.684Z,1012.72
2022-09-02T03:26:04.705Z,1012.73
2022-09-02T03:27:04.717Z,1012.72
2022-09-02T03:29:09.217Z,1012.76
2022-09-02T03:30:08.750Z,1012.72
2022-09-02T03:32:12.766Z,1012.70
2022-09-02T03:33:12.784Z,1012.70
2022-09-02T03:35:17.271Z,1012.71
2022-09-02T03:36:16.806Z,1012.70
2022-09-02T03:38:20.820Z,1012.68
2022-09-02T03:39:20.840Z,1012.68
2022-09-02T03:41:14.315Z,1012.69
2022-09-02T03:42:19.565Z,1012.69
2022-09-02T03:44:17.802Z,1012.66
2022-09-02T03:45:17.825Z,1012.64
2022-09-02T03:47:22.315Z,1012.67
2022-09-02T03:48:21.853Z,1012.63
2022-09-02T03:50:15.324Z,1012.61
2022-09-02T03:51:14.801Z,1012.66
2022-09-02T03:53:19.865Z,1012.65
2022-09-02T03:54:18.826Z,1012.62
2022-09-02T03:56:23.320Z,1012.58
2022-09-02T03:57:22.853Z,1012.62
2022-09-02T03:59:26.875Z,1012.61
2022-09-02T04:00:26.891Z,1012.58
2022-09-02T04:02:31.502Z,1012.57
2022-09-02T04:03:30.920Z,1012.58
2022-09-02T04:05:34.929Z,1012.52
2022-09-02T04:06:34.954Z,1012.55
2022-09-02T04:08:39.443Z,1012.53
2022-09-02T04:09:41.434Z,1012.50
2022-09-02T04:11:42.985Z,1012.50
2022-09-02T04:12:43.002Z,1012.52
2022-09-02T04:14:47.492Z,1012.51
2022-09-02T04:15:47.047Z,1012.52
2022-09-02T04:17:40.172Z,1012.52
2022-09-02T04:18:40.183Z,1012.54
2022-09-02T04:20:33.657Z,1012.50
2022-09-02T04:21:33.136Z,1012.49
2022-09-02T04:23:37.150Z,1012.46
2022-09-02T04:24:37.167Z,1012.45
2022-09-02T04:26:45.410Z,1012.47
2022-09-02T04:27:41.196Z,1012.50
2022-09-02T04:29:45.222Z,1012.47
2022-09-02T04:30:45.237Z,1012.47
2022-09-02T04:32:49.728Z,1012.44
2022-09-02T04:33:49.271Z,1012.42
2022-09-02T04:35:53.278Z,1012.47
2022-09-02T04:36:53.291Z,1012.44
2022-09-02T04:38:57.781Z,1012.43
2022-09-02T04:39:57.324Z,1012.44
2022-09-02T04:42:01.335Z,1012.42
2022-09-02T04:43:01.347Z,1012.47
2022-09-02T04:45:05.841Z,1012.49
2022-09-02T04:46:05.435Z,1012.47
2022-09-02T04:48:09.380Z,1012.46
2022-09-02T04:49:09.402Z,1012.46
2022-09-02T04:51:02.876Z,1012.49
2022-09-02T04:52:02.351Z,1012.49
2022-09-02T04:54:06.369Z,1012.51
2022-09-02T04:55:06.388Z,1012.51
2022-09-02T04:57:10.880Z,1012.52
2022-09-02T04:58:10.426Z,1012.51
2022-09-02T05:00:14.432Z,1012.54
2022-09-02T05:01:14.499Z,1012.51
2022-09-02T05:03:18.939Z,1012.51
2022-09-02T05:04:18.479Z,1012.49
2022-09-02T05:06:22.487Z,1012.48
2022-09-02T05:07:22.501Z,1012.48
2022-09-02T05:09:26.994Z,1012.48
2022-09-02T05:10:26.527Z,1012.46
2022-09-02T05:12:30.548Z,1012.46
2022-09-02T05:13:30.567Z,1012.49
2022-09-02T05:15:35.115Z,1012.47
2022-09-02T05:16:34.593Z,1012.49
2022-09-02T05:18:39.087Z,1012.44
2022-09-02T05:19:38.624Z,1012.46
2022-09-02T05:21:43.115Z,1012.47
2022-09-02T05:22:42.654Z,1012.46
2022-09-02T05:24:46.681Z,1012.47
2022-09-02T05:25:46.684Z,1012.49
2022-09-02T05:27:51.174Z,1012.46
2022-09-02T05:28:50.717Z,1012.45
2022-09-02T05:30:43.673Z,1012.49
2022-09-02T05:31:43.673Z,1012.44
2022-09-02T05:33:48.170Z,1012.47
2022-09-02T05:34:47.710Z,1012.48
2022-09-02T05:36:52.200Z,1012.50
2022-09-02T05:37:51.743Z,1012.50
2022-09-02T05:39:55.760Z,1012.53
2022-09-02T05:40:55.811Z,1012.52
2022-09-02T05:43:00.663Z,1012.52
2022-09-02T05:44:01.588Z,1012.55
2022-09-02T05:46:03.859Z,1012.53
2022-09-02T05:47:03.828Z,1012.53
2022-09-02T05:49:08.321Z,1012.48
2022-09-02T05:50:07.925Z,1012.51
2022-09-02T05:52:11.889Z,1012.51
2022-09-02T05:53:14.377Z,1012.49
2022-09-02T05:55:05.367Z,1012.50
2022-09-02T05:56:05.042Z,1012.49
2022-09-02T05:58:09.066Z,1012.50
2022-09-02T05:59:09.081Z,1012.48
2022-09-02T06:01:02.565Z,1012.46
2022-09-02T06:02:02.063Z,1012.49
2022-09-02T06:04:06.052Z,1012.47
2022-09-02T06:05:06.069Z,1012.45
2022-09-02T06:07:11.797Z,1012.47
2022-09-02T06:08:10.104Z,1012.48
2022-09-02T06:10:14.117Z,1012.44
2022-09-02T06:11:14.139Z,1012.45
2022-09-02T06:13:18.660Z,1012.42
2022-09-02T06:14:18.164Z,1012.40
2022-09-02T06:16:11.327Z,1012.37
2022-09-02T06:17:11.320Z,1012.36
2022-09-02T06:19:19.688Z,1012.37
2022-09-02T06:20:15.354Z,1012.39
2022-09-02T06:22:19.372Z,1012.37
2022-09-02T06:23:19.388Z,1012.35
2022-09-02T06:25:12.872Z,1012.39
2022-09-02T06:26:12.552Z,1012.35
2022-09-02T06:28:16.571Z,1012.35
2022-09-02T06:29:16.583Z,1012.41
2022-09-02T06:31:10.130Z,1012.42
2022-09-02T06:32:09.549Z,1012.43
2022-09-02T06:34:13.611Z,1012.42
2022-09-02T06:35:13.632Z,1012.38
2022-09-02T06:37:18.088Z,1012.38
2022-09-02T06:38:17.629Z,1012.35
2022-09-02T06:40:21.709Z,1012.39
2022-09-02T06:41:21.669Z,1012.39
2022-09-02T06:43:26.170Z,1012.47
2022-09-02T06:44:25.723Z,1012.44
2022-09-02T06:46:30.251Z,1012.47
2022-09-02T06:47:29.762Z,1012.44
2022-09-02T06:49:33.790Z,1012.38
2022-09-02T06:50:33.818Z,1012.41
2022-09-02T06:52:38.314Z,1012.38
2022-09-02T06:53:37.871Z,1012.42
2022-09-02T06:55:41.886Z,1012.36
2022-09-02T06:56:45.916Z,1012.39
2022-09-02T06:58:46.405Z,1012.36
2022-09-02T06:59:45.953Z,1012.37
2022-09-02T07:01:39.234Z,1012.41
2022-09-02T07:02:39.110Z,1012.34
2022-09-02T07:04:43.608Z,1012.35
2022-09-02T07:05:43.171Z,1012.34
2022-09-02T07:07:47.184Z,1012.28
2022-09-02T07:08:47.204Z,1012.33
2022-09-02T07:10:40.689Z,1012.29
2022-09-02T07:11:40.170Z,1012.30
2022-09-02T07:13:44.678Z,1012.30
2022-09-02T07:14:44.270Z,1012.28
2022-09-02T07:16:48.288Z,1012.25
2022-09-02T07:17:48.257Z,1012.31
2022-09-02T07:19:52.759Z,1012.28
2022-09-02T07:20:52.302Z,1012.30
2022-09-02T07:22:45.496Z,1012.28
2022-09-02T07:23:45.473Z,1012.29
2022-09-02T07:25:38.950Z,1012.30
2022-09-02T07:26:38.678Z,1012.28
2022-09-02T07:28:42.678Z,1012.27
2022-09-02T07:29:42.691Z,1012.23
2022-09-02T07:30:42.788Z,1012.24
2022-09-02T07:31:42.747Z,1012.23
2022-09-02T07:32:42.809Z,1012.27
2022-09-02T07:33:42.808Z,1012.26
2022-09-02T07:34:42.830Z,1012.26
2022-09-02T07:35:42.859Z,1012.28
2022-09-02T07:36:42.887Z,1012.25
2022-09-02T07:37:42.932Z,1012.27
2022-09-02T07:38:42.942Z,1012.29
2022-09-02T07:39:42.965Z,1012.32
2022-09-02T07:40:43.043Z,1012.37
2022-09-02T07:41:43.021Z,1012.33
2022-09-02T07:42:43.141Z,1012.31
2022-09-02T07:43:43.077Z,1012.28
2022-09-02T07:44:43.107Z,1012.32
2022-09-02T07:45:43.204Z,1012.31
2022-09-02T07:46:43.165Z,1012.31
2022-09-02T07:47:43.192Z,1012.32
2022-09-02T07:48:43.219Z,1012.30
2022-09-02T07:50:43.276Z,1012.28
2022-09-02T07:51:43.303Z,1012.27
2022-09-02T07:52:43.335Z,1012.30
2022-09-02T07:53:43.359Z,1012.27
2022-09-02T07:54:43.387Z,1012.27
2022-09-02T07:55:43.416Z,1012.25
2022-09-02T07:56:43.446Z,1012.25
2022-09-02T07:57:43.465Z,1012.23
2022-09-02T07:58:43.492Z,1012.21
2022-09-02T07:59:43.528Z,1012.21
2022-09-02T08:00:43.548Z,1012.20
2022-09-02T08:02:43.745Z,1012.18
2022-09-02T08:03:43.636Z,1012.19
2022-09-02T08:04:43.673Z,1012.18
2022-09-02T08:05:43.692Z,1012.15
2022-09-02T08:06:43.720Z,1012.16
2022-09-02T08:07:43.745Z,1012.20
2022-09-02T08:08:43.781Z,1012.21
2022-09-02T08:09:43.808Z,1012.20
2022-09-02T08:10:43.828Z,1012.21
2022-09-02T08:11:43.870Z,1012.19
2022-09-02T08:12:43.902Z,1012.18
2022-09-02T08:13:43.920Z,1012.19
2022-09-02T08:14:43.944Z,1012.20
2022-09-02T08:15:43.976Z,1012.19
2022-09-02T08:16:44.067Z,1012.16
2022-09-02T08:17:44.029Z,1012.20
2022-09-02T08:18:44.060Z,1012.18
2022-09-02T08:19:44.086Z,1012.20
2022-09-02T08:20:44.110Z,1012.16
2022-09-02T08:21:44.144Z,1012.18
2022-09-02T08:22:46.729Z,1012.17
2022-09-02T08:23:44.780Z,1012.14
2022-09-02T08:24:44.227Z,1012.15
2022-09-02T08:25:44.260Z,1012.13
2022-09-02T08:26:44.285Z,1012.17
2022-09-02T08:27:44.359Z,1012.10
2022-09-02T08:28:44.355Z,1012.14
2022-09-02T08:29:44.371Z,1012.17
2022-09-02T08:30:44.410Z,1012.17
2022-09-02T08:31:44.467Z,1012.13
2022-09-02T08:32:44.455Z,1012.13
2022-09-02T08:33:44.483Z,1012.12
2022-09-02T08:34:44.533Z,1012.09
2022-09-02T08:35:44.553Z,1012.08
2022-09-02T08:36:47.573Z,1012.07
2022-09-02T08:37:44.599Z,1012.07
2022-09-02T08:38:51.785Z,1012.07
2022-09-02T08:41:42.031Z,1012.02
2022-09-02T08:42:41.586Z,1012.02
2022-09-02T08:44:45.621Z,1012.00
2022-09-02T08:45:45.700Z,1011.93
2022-09-02T08:47:50.131Z,1012.02
2022-09-02T08:48:49.689Z,1011.99
2022-09-02T08:50:42.633Z,1011.98
2022-09-02T08:51:42.652Z,1011.95
2022-09-02T08:53:47.146Z,1012.01
2022-09-02T08:54:46.729Z,1011.95
2022-09-02T08:56:50.733Z,1012.00
2022-09-02T08:57:50.751Z,1011.99
2022-09-02T08:59:55.244Z,1012.01
2022-09-02T09:00:54.873Z,1012.01
2022-09-02T09:02:58.827Z,1011.90
2022-09-02T09:03:58.849Z,1011.90
2022-09-02T09:06:03.341Z,1011.94
2022-09-02T09:07:02.922Z,1011.95
2022-09-02T09:09:07.415Z,1011.89
2022-09-02T09:10:06.979Z,1011.88
2022-09-02T09:12:11.002Z,1011.86
2022-09-02T09:13:11.026Z,1011.86
2022-09-02T09:15:15.520Z,1011.89
2022-09-02T09:16:15.153Z,1011.85
2022-09-02T09:18:19.228Z,1011.84
2022-09-02T09:19:19.160Z,1011.89
2022-09-02T09:21:12.674Z,1011.84
2022-09-02T09:22:12.131Z,1011.90
2022-09-02T09:24:16.158Z,1011.77
2022-09-02T09:25:16.178Z,1011.76
2022-09-02T09:27:20.666Z,1011.79
2022-09-02T09:28:20.227Z,1011.75
2022-09-02T09:30:15.526Z,1011.76
2022-09-02T09:31:13.219Z,1011.74
2022-09-02T09:33:17.771Z,1011.69
2022-09-02T09:34:17.236Z,1011.68
2022-09-02T09:36:21.273Z,1011.66
2022-09-02T09:37:21.291Z,1011.67
2022-09-02T09:39:25.788Z,1011.60
2022-09-02T09:40:25.371Z,1011.58
2022-09-02T09:42:29.372Z,1011.59
2022-09-02T09:43:29.390Z,1011.57
2022-09-02T09:45:33.950Z,1011.57
2022-09-02T09:46:33.438Z,1011.54
2022-09-02T09:48:37.462Z,1011.52
2022-09-02T09:49:37.482Z,1011.55
2022-09-02T09:51:49.720Z,1011.55
2022-09-02T09:52:41.562Z,1011.56
2022-09-02T09:54:45.571Z,1011.50
2022-09-02T09:55:45.589Z,1011.45
2022-09-02T09:56:45.617Z,1011.42
2022-09-02T09:57:45.859Z,1011.41
2022-09-02T09:58:45.676Z,1011.44
2022-09-02T09:59:45.704Z,1011.37
2022-09-02T10:00:45.754Z,1011.39
2022-09-02T10:01:45.819Z,1011.39
2022-09-02T10:02:45.794Z,1011.39
2022-09-02T10:03:45.820Z,1011.34
2022-09-02T10:04:45.929Z,1011.34
2022-09-02T10:05:45.882Z,1011.28
2022-09-02T10:06:45.914Z,1011.31
2022-09-02T10:07:45.943Z,1011.29
2022-09-02T10:08:45.969Z,1011.34
2022-09-02T10:09:46.001Z,1011.33
2022-09-02T10:10:46.031Z,1011.29
2022-09-02T10:11:46.061Z,1011.32
2022-09-02T10:12:46.090Z,1011.29
2022-09-02T10:13:46.121Z,1011.30
2022-09-02T10:14:46.155Z,1011.27
2022-09-02T10:15:46.183Z,1011.29
2022-09-02T10:16:46.278Z,1011.31
2022-09-02T10:17:46.239Z,1011.27
2022-09-02T10:18:46.268Z,1011.25
2022-09-02T10:19:46.321Z,1011.22
2022-09-02T10:20:58.556Z,1011.27
2022-09-02T10:21:46.356Z,1011.24
2022-09-02T10:22:58.676Z,1011.23
2022-09-02T10:23:46.433Z,1011.26
2022-09-02T10:24:46.478Z,1011.26
2022-09-02T10:25:46.478Z,1011.25
2022-09-02T10:26:46.506Z,1011.24
2022-09-02T10:27:46.551Z,1011.24
2022-09-02T10:28:46.564Z,1011.22
2022-09-02T10:29:46.600Z,1011.20
2022-09-02T10:30:46.633Z,1011.16
2022-09-02T10:31:46.716Z,1011.16
2022-09-02T10:32:46.689Z,1011.18
2022-09-02T10:33:46.720Z,1011.18
2022-09-02T10:34:46.753Z,1011.16
2022-09-02T10:35:46.786Z,1011.12
2022-09-02T10:36:46.810Z,1011.13
2022-09-02T10:37:46.843Z,1011.15
2022-09-02T10:38:46.877Z,1011.11
2022-09-02T10:39:46.903Z,1011.11
2022-09-02T10:40:47.018Z,1011.12
2022-09-02T10:41:46.979Z,1011.06
2022-09-02T10:42:46.996Z,1011.05
2022-09-02T10:43:47.024Z,1011.05
2022-09-02T10:44:47.057Z,1011.03
2022-09-02T10:45:47.100Z,1011.05
2022-09-02T10:46:47.168Z,1011.06
2022-09-02T10:47:47.192Z,1011.01
2022-09-02T10:48:47.182Z,1010.94
2022-09-02T10:49:47.215Z,1011.01
2022-09-02T10:50:49.534Z,1011.02
2022-09-02T10:51:47.278Z,1011.00
2022-09-02T10:52:47.308Z,1010.96
2022-09-02T10:53:47.344Z,1010.94
2022-09-02T10:54:47.369Z,1010.97
2022-09-02T10:55:47.404Z,1010.99
2022-09-02T10:56:47.429Z,1010.99
2022-09-02T10:57:47.462Z,1010.96
2022-09-02T10:58:47.542Z,1010.93
2022-09-02T10:59:47.526Z,1011.03
2022-09-02T11:00:47.571Z,1010.97
2022-09-02T11:01:47.589Z,1010.97
2022-09-02T11:02:47.619Z,1010.90
2022-09-02T11:03:47.710Z,1010.94
2022-09-02T11:04:47.680Z,1010.93
2022-09-02T11:05:47.712Z,1010.94
2022-09-02T11:07:03.791Z,1010.94
2022-09-02T11:07:47.770Z,1010.92
2022-09-02T11:08:47.801Z,1010.88
2022-09-02T11:09:47.837Z,1010.86
2022-09-02T11:10:47.895Z,1010.90
2022-09-02T11:11:47.894Z,1010.91
2022-09-02T11:12:47.929Z,1010.89
2022-09-02T11:13:47.960Z,1010.90
2022-09-02T11:14:47.992Z,1010.88
2022-09-02T11:15:48.058Z,1010.85
2022-09-02T11:16:48.055Z,1010.86
2022-09-02T11:17:48.078Z,1010.83
2022-09-02T11:18:48.114Z,1010.84
2022-09-02T11:19:48.146Z,1010.79
2022-09-02T11:20:48.176Z,1010.78
2022-09-02T11:21:48.209Z,1010.75
2022-09-02T11:22:48.235Z,1010.78
2022-09-02T11:23:48.264Z,1010.77
2022-09-02T11:24:48.301Z,1010.80
2022-09-02T11:25:48.351Z,1010.80
2022-09-02T11:26:48.359Z,1010.85
2022-09-02T11:27:48.395Z,1010.81
2022-09-02T11:28:48.421Z,1010.77
2022-09-02T11:29:48.452Z,1010.78
2022-09-02T11:30:48.582Z,1010.73
2022-09-02T11:31:48.519Z,1010.73
2022-09-02T11:32:48.552Z,1010.71
2022-09-02T11:33:48.633Z,1010.75
2022-09-02T11:34:48.608Z,1010.73
2022-09-02T11:35:48.675Z,1010.74
2022-09-02T11:36:48.678Z,1010.75
2022-09-02T11:37:48.701Z,1010.69
2022-09-02T11:38:48.737Z,1010.72
2022-09-02T11:39:54.381Z,1010.75
2022-09-02T11:41:32.542Z,1010.75
2022-09-02T11:41:48.874Z,1010.69
2022-09-02T11:42:48.879Z,1010.69
2022-09-02T11:43:48.966Z,1010.70
2022-09-02T11:44:52.624Z,1010.64
2022-09-02T11:45:49.065Z,1010.68
2022-09-02T11:46:49.092Z,1010.68
2022-09-02T11:47:49.021Z,1010.65
2022-09-02T11:48:49.050Z,1010.70
2022-09-02T11:49:49.080Z,1010.63
2022-09-02T11:50:49.113Z,1010.65
2022-09-02T11:51:49.145Z,1010.70
2022-09-02T11:52:49.175Z,1010.64
2022-09-02T11:53:49.205Z,1010.59
2022-09-02T11:54:49.237Z,1010.55
2022-09-02T11:55:49.272Z,1010.58
2022-09-02T11:56:49.305Z,1010.57
2022-09-02T11:57:49.329Z,1010.56
2022-09-02T11:58:49.370Z,1010.50
2022-09-02T11:59:49.397Z,1010.53
2022-09-02T12:00:49.430Z,1010.47
2022-09-02T12:01:49.462Z,1010.53
2022-09-02T12:02:49.488Z,1010.46
2022-09-02T12:04:16.209Z,1010.46
2022-09-02T12:04:59.885Z,1010.43
2022-09-02T12:05:49.674Z,1010.46
2022-09-02T12:06:49.746Z,1010.45
2022-09-02T12:07:49.649Z,1010.45
2022-09-02T12:08:49.681Z,1010.43
2022-09-02T12:09:49.729Z,1010.46
2022-09-02T12:10:49.754Z,1010.46
2022-09-02T12:11:49.772Z,1010.37
2022-09-02T12:12:51.816Z,1010.43
2022-09-02T12:14:49.869Z,1010.46
2022-09-02T12:15:49.937Z,1010.42
2022-09-02T12:16:49.936Z,1010.45
2022-09-02T12:17:49.965Z,1010.40
2022-09-02T12:18:49.998Z,1010.42
2022-09-02T12:19:50.030Z,1010.36
2022-09-02T12:20:51.359Z,1010.40
2022-09-02T12:21:50.090Z,1010.36
2022-09-02T12:22:50.126Z,1010.37
2022-09-02T12:23:50.156Z,1010.33
2022-09-02T12:24:50.193Z,1010.32
2022-09-02T12:25:50.218Z,1010.26
2022-09-02T12:26:50.254Z,1010.25
2022-09-02T12:27:50.290Z,1010.23
2022-09-02T12:28:50.317Z,1010.25
2022-09-02T12:29:52.148Z,1010.21
2022-09-02T12:30:50.384Z,1010.19
2022-09-02T12:31:50.498Z,1010.20
2022-09-02T12:32:50.450Z,1010.22
2022-09-02T12:33:50.479Z,1010.14
2022-09-02T12:34:50.511Z,1010.14
2022-09-02T12:35:50.543Z,1010.20
2022-09-02T12:36:50.577Z,1010.16
2022-09-02T12:37:50.606Z,1010.17
2022-09-02T12:38:50.639Z,1010.16
2022-09-02T12:39:50.674Z,1010.21
2022-09-02T12:40:50.774Z,1010.25
2022-09-02T12:41:50.740Z,1010.19
2022-09-02T12:42:50.769Z,1010.21
2022-09-02T12:43:50.815Z,1010.25
2022-09-02T12:44:50.910Z,1010.23
2022-09-02T12:45:50.878Z,1010.21
2022-09-02T12:46:50.945Z,1010.20
2022-09-02T12:47:50.935Z,1010.20
2022-09-02T12:48:50.987Z,1010.14
2022-09-02T12:49:51.000Z,1010.08
2022-09-02T12:50:51.035Z,1010.10
2022-09-02T12:51:51.061Z,1010.08
2022-09-02T12:52:51.102Z,1010.05
2022-09-02T12:53:51.137Z,1010.04
2022-09-02T12:54:51.173Z,1009.98
2022-09-02T12:55:51.199Z,1010.01
2022-09-02T12:56:51.230Z,1009.99
2022-09-02T12:57:51.261Z,1009.98
2022-09-02T12:58:51.296Z,1009.95
2022-09-02T12:59:51.328Z,1009.94
2022-09-02T13:00:51.360Z,1009.89
2022-09-02T13:01:51.544Z,1009.93
2022-09-02T13:02:51.426Z,1009.92
2022-09-02T13:03:51.457Z,1009.92
2022-09-02T13:04:51.489Z,1009.92
2022-09-02T13:05:51.520Z,1009.89
2022-09-02T13:06:51.548Z,1009.92
2022-09-02T13:07:51.587Z,1009.93
2022-09-02T13:08:51.620Z,1009.92
2022-09-02T13:09:51.649Z,1009.92
2022-09-02T13:10:51.680Z,1009.91
2022-09-02T13:11:51.718Z,1009.93
2022-09-02T13:12:51.747Z,1009.92
2022-09-02T13:13:51.774Z,1009.92
2022-09-02T13:14:51.808Z,1009.91
2022-09-02T13:15:51.859Z,1009.86
2022-09-02T13:16:51.883Z,1009.92
2022-09-02T13:17:51.930Z,1009.89
2022-09-02T13:18:51.937Z,1009.85
2022-09-02T13:19:51.973Z,1009.85
2022-09-02T13:20:55.791Z,1009.84
2022-09-02T13:21:52.031Z,1009.85
2022-09-02T13:22:52.061Z,1009.82
2022-09-02T13:23:52.095Z,1009.80
2022-09-02T13:24:52.177Z,1009.83
2022-09-02T13:25:52.162Z,1009.81
2022-09-02T13:26:52.191Z,1009.86
2022-09-02T13:27:52.226Z,1009.89
2022-09-02T13:28:52.257Z,1009.90
2022-09-02T13:29:52.305Z,1009.89
2022-09-02T13:30:52.343Z,1009.79
2022-09-02T13:31:52.355Z,1009.76
2022-09-02T13:32:52.388Z,1009.83
2022-09-02T13:33:52.417Z,1009.82
2022-09-02T13:34:52.447Z,1009.78
2022-09-02T13:35:52.483Z,1009.77
2022-09-02T13:36:52.518Z,1009.79
2022-09-02T13:37:52.662Z,1009.79
2022-09-02T13:38:52.624Z,1009.82
2022-09-02T13:39:52.614Z,1009.80
2022-09-02T13:40:52.651Z,1009.82
2022-09-02T13:41:52.679Z,1009.76
2022-09-02T13:42:52.714Z,1009.76
2022-09-02T13:43:52.747Z,1009.79
2022-09-02T13:44:52.785Z,1009.78
2022-09-02T13:45:52.962Z,1009.73
2022-09-02T13:46:52.846Z,1009.68
2022-09-02T13:47:52.881Z,1009.68
2022-09-02T13:48:52.921Z,1009.70
2022-09-02T13:49:52.956Z,1009.67
2022-09-02T13:50:52.979Z,1009.66
2022-09-02T13:51:53.011Z,1009.65
2022-09-02T13:54:21.584Z,1009.77
2022-09-02T13:54:53.110Z,1009.82
2022-09-02T13:55:53.146Z,1009.73
2022-09-02T13:56:53.179Z,1009.71
2022-09-02T13:57:53.229Z,1009.68
2022-09-02T13:58:53.241Z,1009.65
2022-09-02T13:59:53.280Z,1009.67
2022-09-02T14:00:53.783Z,1009.69
2022-09-02T14:01:53.533Z,1009.68
2022-09-02T14:02:53.497Z,1009.65
2022-09-02T14:03:53.502Z,1009.67
2022-09-02T14:04:53.438Z,1009.67
2022-09-02T14:05:53.476Z,1009.60
2022-09-02T14:06:53.514Z,1009.59
2022-09-02T14:07:53.545Z,1009.65
2022-09-02T14:08:53.576Z,1009.59
2022-09-02T14:09:53.627Z,1009.63
2022-09-02T14:10:53.638Z,1009.64
2022-09-02T14:11:53.674Z,1009.60
2022-09-02T14:12:53.702Z,1009.56
2022-09-02T14:13:53.739Z,1009.56
2022-09-02T14:14:53.770Z,1009.54
2022-09-02T14:15:53.911Z,1009.55
2022-09-02T14:16:53.838Z,1009.55
2022-09-02T14:17:53.872Z,1009.55
2022-09-02T14:18:53.900Z,1009.55
2022-09-02T14:19:53.937Z,1009.52
2022-09-02T14:20:53.970Z,1009.52
2022-09-02T14:21:54.000Z,1009.51
2022-09-02T14:22:54.032Z,1009.45
2022-09-02T14:23:54.066Z,1009.45
2022-09-02T14:24:54.097Z,1009.44
2022-09-02T14:25:54.132Z,1009.45
2022-09-02T14:26:54.169Z,1009.48
2022-09-02T14:27:54.198Z,1009.48
2022-09-02T14:28:54.229Z,1009.44
2022-09-02T14:29:54.260Z,1009.44
2022-09-02T14:30:54.304Z,1009.51
2022-09-02T14:31:54.330Z,1009.49
2022-09-02T14:32:54.413Z,1009.45